sensor_id;sensor_type;location;lat;lon;timestamp;P1;durP1;ratioP1;P2;durP2;ratioP2
8654;SDS011;13500;52.514;13.462;2023-02-28T00:00:04;9.30;;;3.80;;
8654;SDS011;13500;52.514;13.462;2023-02-28T00:02:36;6.73;;;3.70;;
8654;SDS011;13500;52.514;13.462;2023-02-28T00:05:04;6.37;;;3.97;;
8654;SDS011;13500;52.514;13.462;2023-02-28T00:07:35;5.57;;;3.53;;
8654;SDS011;13500;52.514;13.462;2023-02-28T00:10:04;7.00;;;3.90;;
8654;SDS011;13500;52.514;13.462;2023-02-28T00:12:32;6.77;;;4.00;;
8654;SDS011;13500;52.514;13.462;2023-02-28T00:15:00;6.40;;;3.77;;
8654;SDS011;13500;52.514;13.462;2023-02-28T00:17:29;4.43;;;3.10;;
8654;SDS011;13500;52.514;13.462;2023-02-28T00:19:56;5.43;;;3.17;;
8654;SDS011;13500;52.514;13.462;2023-02-28T00:22:28;6.63;;;3.57;;
8654;SDS011;13500;52.514;13.462;2023-02-28T00:24:57;5.33;;;3.50;;
8654;SDS011;13500;52.514;13.462;2023-02-28T00:27:25;6.70;;;3.33;;
8654;SDS011;13500;52.514;13.462;2023-02-28T00:29:52;7.73;;;3.60;;
8654;SDS011;13500;52.514;13.462;2023-02-28T00:32:20;4.83;;;3.10;;
8654;SDS011;13500;52.514;13.462;2023-02-28T00:34:48;8.17;;;3.30;;
8654;SDS011;13500;52.514;13.462;2023-02-28T00:37:16;5.93;;;3.73;;
8654;SDS011;13500;52.514;13.462;2023-02-28T00:39:44;7.13;;;3.63;;
8654;SDS011;13500;52.514;13.462;2023-02-28T00:42:16;9.53;;;4.03;;
8654;SDS011;13500;52.514;13.462;2023-02-28T00:44:46;4.83;;;3.20;;
8654;SDS011;13500;52.514;13.462;2023-02-28T00:47:14;5.17;;;3.27;;
8654;SDS011;13500;52.514;13.462;2023-02-28T00:49:42;4.97;;;3.30;;
8654;SDS011;13500;52.514;13.462;2023-02-28T00:52:10;4.80;;;3.47;;
8654;SDS011;13500;52.514;13.462;2023-02-28T00:54:38;4.67;;;3.50;;
8654;SDS011;13500;52.514;13.462;2023-02-28T00:57:06;5.43;;;3.20;;
8654;SDS011;13500;52.514;13.462;2023-02-28T00:59:35;7.37;;;3.27;;
8654;SDS011;13500;52.514;13.462;2023-02-28T01:02:05;5.50;;;3.70;;
8654;SDS011;13500;52.514;13.462;2023-02-28T01:04:35;5.00;;;3.43;;
8654;SDS011;13500;52.514;13.462;2023-02-28T01:07:03;6.63;;;3.43;;
8654;SDS011;13500;52.514;13.462;2023-02-28T01:09:31;5.63;;;3.50;;
8654;SDS011;13500;52.514;13.462;2023-02-28T01:11:59;8.93;;;4.10;;
8654;SDS011;13500;52.514;13.462;2023-02-28T01:14:27;6.33;;;4.27;;
8654;SDS011;13500;52.514;13.462;2023-02-28T01:16:57;5.43;;;4.20;;
8654;SDS011;13500;52.514;13.462;2023-02-28T01:19:24;7.73;;;4.47;;
8654;SDS011;13500;52.514;13.462;2023-02-28T01:21:52;7.57;;;4.50;;
8654;SDS011;13500;52.514;13.462;2023-02-28T01:24:20;6.57;;;3.90;;
8654;SDS011;13500;52.514;13.462;2023-02-28T01:26:48;7.30;;;4.13;;
8654;SDS011;13500;52.514;13.462;2023-02-28T01:29:16;7.50;;;3.77;;
8654;SDS011;13500;52.514;13.462;2023-02-28T01:31:44;6.13;;;4.30;;
8654;SDS011;13500;52.514;13.462;2023-02-28T01:34:13;7.73;;;4.07;;
8654;SDS011;13500;52.514;13.462;2023-02-28T01:36:41;5.53;;;3.73;;
8654;SDS011;13500;52.514;13.462;2023-02-28T01:39:09;8.20;;;3.73;;
8654;SDS011;13500;52.514;13.462;2023-02-28T01:41:39;7.87;;;4.77;;
8654;SDS011;13500;52.514;13.462;2023-02-28T01:44:53;5.97;;;4.00;;
8654;SDS011;13500;52.514;13.462;2023-02-28T01:47:13;4.87;;;3.67;;
8654;SDS011;13500;52.514;13.462;2023-02-28T01:49:42;6.83;;;4.70;;
8654;SDS011;13500;52.514;13.462;2023-02-28T01:52:11;7.07;;;4.20;;
8654;SDS011;13500;52.514;13.462;2023-02-28T01:54:41;6.93;;;4.57;;
8654;SDS011;13500;52.514;13.462;2023-02-28T01:57:10;5.93;;;4.27;;
8654;SDS011;13500;52.514;13.462;2023-02-28T01:59:40;7.80;;;4.23;;
8654;SDS011;13500;52.514;13.462;2023-02-28T02:02:12;7.43;;;4.23;;
8654;SDS011;13500;52.514;13.462;2023-02-28T02:04:41;5.63;;;3.63;;
8654;SDS011;13500;52.514;13.462;2023-02-28T02:07:13;6.53;;;3.97;;
8654;SDS011;13500;52.514;13.462;2023-02-28T02:09:43;7.43;;;4.40;;
8654;SDS011;13500;52.514;13.462;2023-02-28T02:12:14;9.83;;;5.20;;
8654;SDS011;13500;52.514;13.462;2023-02-28T02:14:55;6.27;;;4.07;;
8654;SDS011;13500;52.514;13.462;2023-02-28T02:17:28;7.17;;;4.47;;
8654;SDS011;13500;52.514;13.462;2023-02-28T02:23:09;7.47;;;4.63;;
8654;SDS011;13500;52.514;13.462;2023-02-28T02:26:01;6.00;;;4.40;;
8654;SDS011;13500;52.514;13.462;2023-02-28T02:28:54;7.20;;;4.37;;
8654;SDS011;13500;52.514;13.462;2023-02-28T02:31:46;6.43;;;4.47;;
8654;SDS011;13500;52.514;13.462;2023-02-28T02:34:39;9.50;;;4.70;;
8654;SDS011;13500;52.514;13.462;2023-02-28T02:37:12;7.77;;;4.70;;
8654;SDS011;13500;52.514;13.462;2023-02-28T02:39:50;9.70;;;4.77;;
8654;SDS011;13500;52.514;13.462;2023-02-28T02:42:21;10.10;;;4.90;;
8654;SDS011;13500;52.514;13.462;2023-02-28T02:44:54;8.63;;;5.10;;
8654;SDS011;13500;52.514;13.462;2023-02-28T02:47:26;6.63;;;5.00;;
8654;SDS011;13500;52.514;13.462;2023-02-28T02:49:57;6.33;;;4.33;;
8654;SDS011;13500;52.514;13.462;2023-02-28T02:52:32;9.27;;;4.93;;
8654;SDS011;13500;52.514;13.462;2023-02-28T02:55:04;9.27;;;5.00;;
8654;SDS011;13500;52.514;13.462;2023-02-28T02:57:34;7.87;;;4.67;;
8654;SDS011;13500;52.514;13.462;2023-02-28T03:00:05;5.97;;;4.50;;
8654;SDS011;13500;52.514;13.462;2023-02-28T03:02:34;8.57;;;3.90;;
8654;SDS011;13500;52.514;13.462;2023-02-28T03:05:06;8.57;;;4.63;;
8654;SDS011;13500;52.514;13.462;2023-02-28T03:07:39;10.00;;;4.90;;
8654;SDS011;13500;52.514;13.462;2023-02-28T03:13:00;7.47;;;4.87;;
8654;SDS011;13500;52.514;13.462;2023-02-28T03:15:43;7.27;;;4.77;;
8654;SDS011;13500;52.514;13.462;2023-02-28T03:18:21;7.73;;;4.50;;
8654;SDS011;13500;52.514;13.462;2023-02-28T03:20:56;7.20;;;4.87;;
8654;SDS011;13500;52.514;13.462;2023-02-28T03:23:30;9.90;;;5.30;;
8654;SDS011;13500;52.514;13.462;2023-02-28T03:26:07;10.27;;;5.57;;
8654;SDS011;13500;52.514;13.462;2023-02-28T03:28:41;6.97;;;5.00;;
8654;SDS011;13500;52.514;13.462;2023-02-28T03:31:14;8.93;;;5.23;;
8654;SDS011;13500;52.514;13.462;2023-02-28T03:33:46;7.67;;;5.10;;
8654;SDS011;13500;52.514;13.462;2023-02-28T03:36:22;10.23;;;5.47;;
8654;SDS011;13500;52.514;13.462;2023-02-28T03:38:54;6.70;;;5.10;;
8654;SDS011;13500;52.514;13.462;2023-02-28T03:41:25;7.90;;;5.10;;
8654;SDS011;13500;52.514;13.462;2023-02-28T03:43:58;8.47;;;5.37;;
8654;SDS011;13500;52.514;13.462;2023-02-28T03:46:30;9.23;;;5.17;;
8654;SDS011;13500;52.514;13.462;2023-02-28T03:49:00;9.47;;;5.87;;
8654;SDS011;13500;52.514;13.462;2023-02-28T03:51:31;8.87;;;5.07;;
8654;SDS011;13500;52.514;13.462;2023-02-28T03:54:02;9.47;;;5.77;;
8654;SDS011;13500;52.514;13.462;2023-02-28T03:56:34;7.23;;;4.73;;
8654;SDS011;13500;52.514;13.462;2023-02-28T03:59:06;8.67;;;5.50;;
8654;SDS011;13500;52.514;13.462;2023-02-28T04:01:36;8.10;;;5.00;;
8654;SDS011;13500;52.514;13.462;2023-02-28T04:04:07;10.30;;;5.13;;
8654;SDS011;13500;52.514;13.462;2023-02-28T04:06:37;9.60;;;5.23;;
8654;SDS011;13500;52.514;13.462;2023-02-28T04:09:06;11.60;;;7.63;;
8654;SDS011;13500;52.514;13.462;2023-02-28T04:11:36;9.33;;;5.53;;
8654;SDS011;13500;52.514;13.462;2023-02-28T04:14:05;9.33;;;5.27;;
8654;SDS011;13500;52.514;13.462;2023-02-28T04:16:34;7.27;;;5.03;;
8654;SDS011;13500;52.514;13.462;2023-02-28T04:19:03;8.13;;;5.20;;
8654;SDS011;13500;52.514;13.462;2023-02-28T04:21:32;8.70;;;5.33;;
8654;SDS011;13500;52.514;13.462;2023-02-28T04:24:03;8.07;;;4.87;;
8654;SDS011;13500;52.514;13.462;2023-02-28T04:26:32;6.97;;;4.73;;
8654;SDS011;13500;52.514;13.462;2023-02-28T04:29:01;8.43;;;5.40;;
8654;SDS011;13500;52.514;13.462;2023-02-28T04:31:29;9.10;;;5.23;;
8654;SDS011;13500;52.514;13.462;2023-02-28T04:33:58;9.80;;;5.30;;
8654;SDS011;13500;52.514;13.462;2023-02-28T04:36:26;8.97;;;5.30;;
8654;SDS011;13500;52.514;13.462;2023-02-28T04:38:54;7.57;;;5.10;;
8654;SDS011;13500;52.514;13.462;2023-02-28T04:41:23;10.40;;;5.47;;
8654;SDS011;13500;52.514;13.462;2023-02-28T04:43:53;10.67;;;6.00;;
8654;SDS011;13500;52.514;13.462;2023-02-28T04:46:22;9.27;;;5.80;;
8654;SDS011;13500;52.514;13.462;2023-02-28T04:48:50;9.90;;;5.50;;
8654;SDS011;13500;52.514;13.462;2023-02-28T04:51:18;13.03;;;6.07;;
8654;SDS011;13500;52.514;13.462;2023-02-28T04:53:46;10.10;;;5.83;;
8654;SDS011;13500;52.514;13.462;2023-02-28T04:56:16;10.07;;;6.00;;
8654;SDS011;13500;52.514;13.462;2023-02-28T04:58:46;10.03;;;5.77;;
8654;SDS011;13500;52.514;13.462;2023-02-28T05:01:18;9.80;;;6.07;;
8654;SDS011;13500;52.514;13.462;2023-02-28T05:03:47;8.37;;;5.70;;
8654;SDS011;13500;52.514;13.462;2023-02-28T05:06:16;12.83;;;6.37;;
8654;SDS011;13500;52.514;13.462;2023-02-28T05:08:44;10.77;;;6.00;;
8654;SDS011;13500;52.514;13.462;2023-02-28T05:11:13;9.63;;;5.70;;
8654;SDS011;13500;52.514;13.462;2023-02-28T05:13:43;10.13;;;6.17;;
8654;SDS011;13500;52.514;13.462;2023-02-28T05:16:14;10.90;;;5.73;;
8654;SDS011;13500;52.514;13.462;2023-02-28T05:18:42;10.63;;;5.70;;
8654;SDS011;13500;52.514;13.462;2023-02-28T05:23:57;7.17;;;5.10;;
8654;SDS011;13500;52.514;13.462;2023-02-28T05:26:27;10.00;;;5.93;;
8654;SDS011;13500;52.514;13.462;2023-02-28T05:28:57;11.33;;;6.00;;
8654;SDS011;13500;52.514;13.462;2023-02-28T05:31:25;15.03;;;6.77;;
8654;SDS011;13500;52.514;13.462;2023-02-28T05:33:53;11.03;;;6.67;;
8654;SDS011;13500;52.514;13.462;2023-02-28T05:36:21;12.90;;;6.20;;
8654;SDS011;13500;52.514;13.462;2023-02-28T05:38:50;13.23;;;6.53;;
8654;SDS011;13500;52.514;13.462;2023-02-28T05:41:19;14.13;;;6.53;;
8654;SDS011;13500;52.514;13.462;2023-02-28T05:43:47;13.63;;;6.50;;
8654;SDS011;13500;52.514;13.462;2023-02-28T05:46:17;13.70;;;6.57;;
8654;SDS011;13500;52.514;13.462;2023-02-28T05:48:47;11.57;;;7.10;;
8654;SDS011;13500;52.514;13.462;2023-02-28T05:51:16;13.97;;;6.90;;
8654;SDS011;13500;52.514;13.462;2023-02-28T05:53:44;11.13;;;6.30;;
8654;SDS011;13500;52.514;13.462;2023-02-28T05:56:12;13.03;;;6.33;;
8654;SDS011;13500;52.514;13.462;2023-02-28T05:58:40;10.07;;;6.30;;
8654;SDS011;13500;52.514;13.462;2023-02-28T06:01:26;11.93;;;6.50;;
8654;SDS011;13500;52.514;13.462;2023-02-28T06:03:59;11.73;;;6.17;;
8654;SDS011;13500;52.514;13.462;2023-02-28T06:06:28;14.53;;;7.50;;
8654;SDS011;13500;52.514;13.462;2023-02-28T06:08:57;12.53;;;6.67;;
8654;SDS011;13500;52.514;13.462;2023-02-28T06:11:25;13.97;;;6.70;;
8654;SDS011;13500;52.514;13.462;2023-02-28T06:13:54;12.77;;;6.77;;
8654;SDS011;13500;52.514;13.462;2023-02-28T06:16:24;14.70;;;6.90;;
8654;SDS011;13500;52.514;13.462;2023-02-28T06:18:52;14.97;;;6.20;;
8654;SDS011;13500;52.514;13.462;2023-02-28T06:21:22;11.20;;;6.83;;
8654;SDS011;13500;52.514;13.462;2023-02-28T06:23:50;13.37;;;6.80;;
8654;SDS011;13500;52.514;13.462;2023-02-28T06:26:18;10.80;;;6.40;;
8654;SDS011;13500;52.514;13.462;2023-02-28T06:28:46;14.33;;;6.43;;
8654;SDS011;13500;52.514;13.462;2023-02-28T06:31:15;13.77;;;6.80;;
8654;SDS011;13500;52.514;13.462;2023-02-28T06:33:45;15.87;;;7.30;;
8654;SDS011;13500;52.514;13.462;2023-02-28T06:36:14;18.43;;;8.20;;
8654;SDS011;13500;52.514;13.462;2023-02-28T06:38:42;13.97;;;7.20;;
8654;SDS011;13500;52.514;13.462;2023-02-28T06:41:10;13.23;;;7.33;;
8654;SDS011;13500;52.514;13.462;2023-02-28T06:43:40;13.30;;;6.77;;
8654;SDS011;13500;52.514;13.462;2023-02-28T06:46:10;14.23;;;7.53;;
8654;SDS011;13500;52.514;13.462;2023-02-28T06:48:40;17.10;;;7.47;;
8654;SDS011;13500;52.514;13.462;2023-02-28T06:51:12;11.53;;;6.80;;
8654;SDS011;13500;52.514;13.462;2023-02-28T06:53:41;17.47;;;7.63;;
8654;SDS011;13500;52.514;13.462;2023-02-28T06:56:10;15.47;;;7.73;;
8654;SDS011;13500;52.514;13.462;2023-02-28T06:58:39;13.20;;;7.60;;
8654;SDS011;13500;52.514;13.462;2023-02-28T07:01:07;20.70;;;8.17;;
8654;SDS011;13500;52.514;13.462;2023-02-28T07:03:35;15.83;;;7.73;;
8654;SDS011;13500;52.514;13.462;2023-02-28T07:06:04;17.63;;;8.40;;
8654;SDS011;13500;52.514;13.462;2023-02-28T07:08:34;20.97;;;8.70;;
8654;SDS011;13500;52.514;13.462;2023-02-28T07:11:03;12.60;;;8.03;;
8654;SDS011;13500;52.514;13.462;2023-02-28T07:13:31;14.53;;;8.33;;
8654;SDS011;13500;52.514;13.462;2023-02-28T07:16:00;18.03;;;8.60;;
8654;SDS011;13500;52.514;13.462;2023-02-28T07:18:29;16.03;;;8.17;;
8654;SDS011;13500;52.514;13.462;2023-02-28T07:20:56;16.33;;;8.37;;
8654;SDS011;13500;52.514;13.462;2023-02-28T07:23:24;18.80;;;8.83;;
8654;SDS011;13500;52.514;13.462;2023-02-28T07:25:54;15.77;;;8.10;;
8654;SDS011;13500;52.514;13.462;2023-02-28T07:28:21;17.40;;;10.47;;
8654;SDS011;13500;52.514;13.462;2023-02-28T07:30:49;16.23;;;8.70;;
8654;SDS011;13500;52.514;13.462;2023-02-28T07:33:17;15.10;;;8.47;;
8654;SDS011;13500;52.514;13.462;2023-02-28T07:35:45;14.03;;;8.30;;
8654;SDS011;13500;52.514;13.462;2023-02-28T07:38:13;12.53;;;7.90;;
8654;SDS011;13500;52.514;13.462;2023-02-28T07:40:41;14.03;;;7.83;;
8654;SDS011;13500;52.514;13.462;2023-02-28T07:43:10;14.13;;;9.10;;
8654;SDS011;13500;52.514;13.462;2023-02-28T07:45:38;15.27;;;8.13;;
8654;SDS011;13500;52.514;13.462;2023-02-28T07:48:06;9.83;;;6.77;;
8654;SDS011;13500;52.514;13.462;2023-02-28T07:50:36;12.40;;;7.20;;
8654;SDS011;13500;52.514;13.462;2023-02-28T07:53:04;14.43;;;6.90;;
8654;SDS011;13500;52.514;13.462;2023-02-28T07:55:32;9.63;;;7.43;;
8654;SDS011;13500;52.514;13.462;2023-02-28T07:57:59;9.00;;;4.83;;
8654;SDS011;13500;52.514;13.462;2023-02-28T08:00:29;6.70;;;5.20;;
8654;SDS011;13500;52.514;13.462;2023-02-28T08:02:58;7.37;;;5.03;;
8654;SDS011;13500;52.514;13.462;2023-02-28T08:05:26;8.47;;;5.77;;
8654;SDS011;13500;52.514;13.462;2023-02-28T08:07:53;10.03;;;4.73;;
8654;SDS011;13500;52.514;13.462;2023-02-28T08:10:21;5.73;;;4.10;;
8654;SDS011;13500;52.514;13.462;2023-02-28T08:12:50;6.63;;;3.57;;
8654;SDS011;13500;52.514;13.462;2023-02-28T08:15:18;6.33;;;3.90;;
8654;SDS011;13500;52.514;13.462;2023-02-28T08:17:47;7.67;;;4.57;;
8654;SDS011;13500;52.514;13.462;2023-02-28T08:20:15;6.97;;;4.90;;
8654;SDS011;13500;52.514;13.462;2023-02-28T08:22:43;5.40;;;4.23;;
8654;SDS011;13500;52.514;13.462;2023-02-28T08:25:11;7.23;;;4.90;;
8654;SDS011;13500;52.514;13.462;2023-02-28T08:27:39;4.77;;;3.17;;
8654;SDS011;13500;52.514;13.462;2023-02-28T08:30:08;7.57;;;3.00;;
8654;SDS011;13500;52.514;13.462;2023-02-28T08:32:37;6.10;;;3.63;;
8654;SDS011;13500;52.514;13.462;2023-02-28T08:35:08;5.90;;;3.90;;
8654;SDS011;13500;52.514;13.462;2023-02-28T08:37:36;5.60;;;3.27;;
8654;SDS011;13500;52.514;13.462;2023-02-28T08:40:05;5.10;;;3.33;;
8654;SDS011;13500;52.514;13.462;2023-02-28T08:42:34;2.90;;;2.60;;
8654;SDS011;13500;52.514;13.462;2023-02-28T08:45:02;4.67;;;2.40;;
8654;SDS011;13500;52.514;13.462;2023-02-28T08:47:30;3.90;;;2.80;;
8654;SDS011;13500;52.514;13.462;2023-02-28T08:49:58;2.93;;;2.63;;
8654;SDS011;13500;52.514;13.462;2023-02-28T08:52:28;4.53;;;2.73;;
8654;SDS011;13500;52.514;13.462;2023-02-28T08:54:55;2.87;;;2.47;;
8654;SDS011;13500;52.514;13.462;2023-02-28T08:57:23;3.30;;;2.57;;
8654;SDS011;13500;52.514;13.462;2023-02-28T08:59:52;3.00;;;2.57;;
8654;SDS011;13500;52.514;13.462;2023-02-28T09:02:20;5.40;;;2.43;;
8654;SDS011;13500;52.514;13.462;2023-02-28T09:04:48;2.80;;;2.40;;
8654;SDS011;13500;52.514;13.462;2023-02-28T09:07:16;4.93;;;3.30;;
8654;SDS011;13500;52.514;13.462;2023-02-28T09:09:45;3.63;;;2.90;;
8654;SDS011;13500;52.514;13.462;2023-02-28T09:12:21;2.93;;;2.47;;
8654;SDS011;13500;52.514;13.462;2023-02-28T09:14:50;3.20;;;2.53;;
8654;SDS011;13500;52.514;13.462;2023-02-28T09:17:18;3.33;;;2.40;;
8654;SDS011;13500;52.514;13.462;2023-02-28T09:19:47;3.87;;;2.70;;
8654;SDS011;13500;52.514;13.462;2023-02-28T09:22:15;3.40;;;2.50;;
8654;SDS011;13500;52.514;13.462;2023-02-28T09:24:45;3.97;;;2.50;;
8654;SDS011;13500;52.514;13.462;2023-02-28T09:27:12;2.97;;;2.67;;
8654;SDS011;13500;52.514;13.462;2023-02-28T09:29:40;3.07;;;2.60;;
8654;SDS011;13500;52.514;13.462;2023-02-28T09:32:08;3.43;;;3.00;;
8654;SDS011;13500;52.514;13.462;2023-02-28T09:34:36;6.00;;;3.07;;
8654;SDS011;13500;52.514;13.462;2023-02-28T09:37:04;5.53;;;2.40;;
8654;SDS011;13500;52.514;13.462;2023-02-28T09:39:32;4.40;;;2.60;;
8654;SDS011;13500;52.514;13.462;2023-02-28T09:42:02;7.50;;;3.00;;
8654;SDS011;13500;52.514;13.462;2023-02-28T09:44:31;2.77;;;2.50;;
8654;SDS011;13500;52.514;13.462;2023-02-28T09:47:05;3.00;;;2.60;;
8654;SDS011;13500;52.514;13.462;2023-02-28T09:49:37;4.77;;;2.57;;
8654;SDS011;13500;52.514;13.462;2023-02-28T09:52:09;3.43;;;2.33;;
8654;SDS011;13500;52.514;13.462;2023-02-28T09:54:37;3.50;;;2.07;;
8654;SDS011;13500;52.514;13.462;2023-02-28T09:57:08;2.70;;;2.50;;
8654;SDS011;13500;52.514;13.462;2023-02-28T09:59:44;2.93;;;2.33;;
8654;SDS011;13500;52.514;13.462;2023-02-28T10:02:35;5.80;;;2.63;;
8654;SDS011;13500;52.514;13.462;2023-02-28T10:05:10;3.60;;;2.60;;
8654;SDS011;13500;52.514;13.462;2023-02-28T10:07:43;3.43;;;2.30;;
8654;SDS011;13500;52.514;13.462;2023-02-28T10:10:21;2.50;;;2.27;;
8654;SDS011;13500;52.514;13.462;2023-02-28T10:12:53;6.23;;;2.60;;
8654;SDS011;13500;52.514;13.462;2023-02-28T10:15:23;3.07;;;2.50;;
8654;SDS011;13500;52.514;13.462;2023-02-28T10:17:54;3.90;;;2.90;;
8654;SDS011;13500;52.514;13.462;2023-02-28T10:20:35;3.53;;;2.60;;
8654;SDS011;13500;52.514;13.462;2023-02-28T10:23:07;3.03;;;2.60;;
8654;SDS011;13500;52.514;13.462;2023-02-28T10:25:39;4.47;;;3.00;;
8654;SDS011;13500;52.514;13.462;2023-02-28T10:28:12;3.37;;;2.73;;
8654;SDS011;13500;52.514;13.462;2023-02-28T10:30:41;5.17;;;3.00;;
8654;SDS011;13500;52.514;13.462;2023-02-28T10:33:15;3.53;;;2.97;;
8654;SDS011;13500;52.514;13.462;2023-02-28T10:35:47;3.70;;;2.73;;
8654;SDS011;13500;52.514;13.462;2023-02-28T10:38:16;4.50;;;2.80;;
8654;SDS011;13500;52.514;13.462;2023-02-28T10:40:45;3.47;;;2.50;;
8654;SDS011;13500;52.514;13.462;2023-02-28T10:43:19;3.97;;;3.07;;
8654;SDS011;13500;52.514;13.462;2023-02-28T10:45:53;13.10;;;6.73;;
8654;SDS011;13500;52.514;13.462;2023-02-28T10:48:26;4.47;;;3.03;;
8654;SDS011;13500;52.514;13.462;2023-02-28T10:50:57;3.80;;;2.77;;
8654;SDS011;13500;52.514;13.462;2023-02-28T10:53:30;3.03;;;2.60;;
8654;SDS011;13500;52.514;13.462;2023-02-28T10:56:20;3.87;;;2.53;;
8654;SDS011;13500;52.514;13.462;2023-02-28T10:58:52;10.70;;;9.43;;
8654;SDS011;13500;52.514;13.462;2023-02-28T11:01:23;4.27;;;2.90;;
8654;SDS011;13500;52.514;13.462;2023-02-28T11:03:52;5.70;;;2.83;;
8654;SDS011;13500;52.514;13.462;2023-02-28T11:06:21;4.27;;;3.50;;
8654;SDS011;13500;52.514;13.462;2023-02-28T11:08:51;7.47;;;3.53;;
8654;SDS011;13500;52.514;13.462;2023-02-28T11:11:20;5.87;;;2.80;;
8654;SDS011;13500;52.514;13.462;2023-02-28T11:13:50;4.60;;;2.80;;
8654;SDS011;13500;52.514;13.462;2023-02-28T11:16:20;3.23;;;2.90;;
8654;SDS011;13500;52.514;13.462;2023-02-28T11:18:50;3.33;;;2.77;;
8654;SDS011;13500;52.514;13.462;2023-02-28T11:21:20;4.40;;;3.20;;
8654;SDS011;13500;52.514;13.462;2023-02-28T11:23:51;3.80;;;3.10;;
8654;SDS011;13500;52.514;13.462;2023-02-28T11:26:41;4.67;;;2.90;;
8654;SDS011;13500;52.514;13.462;2023-02-28T11:29:19;5.27;;;3.10;;
8654;SDS011;13500;52.514;13.462;2023-02-28T11:32:02;2.90;;;2.60;;
8654;SDS011;13500;52.514;13.462;2023-02-28T11:34:40;8.13;;;2.90;;
8654;SDS011;13500;52.514;13.462;2023-02-28T11:37:11;3.60;;;2.93;;
8654;SDS011;13500;52.514;13.462;2023-02-28T11:39:40;5.23;;;3.43;;
8654;SDS011;13500;52.514;13.462;2023-02-28T11:42:12;6.20;;;3.70;;
8654;SDS011;13500;52.514;13.462;2023-02-28T11:45:07;4.37;;;3.33;;
8654;SDS011;13500;52.514;13.462;2023-02-28T11:47:42;8.13;;;3.63;;
8654;SDS011;13500;52.514;13.462;2023-02-28T11:50:20;5.23;;;3.20;;
8654;SDS011;13500;52.514;13.462;2023-02-28T11:52:55;3.77;;;3.30;;
8654;SDS011;13500;52.514;13.462;2023-02-28T11:55:25;4.97;;;3.30;;
8654;SDS011;13500;52.514;13.462;2023-02-28T12:01:06;4.27;;;3.00;;
8654;SDS011;13500;52.514;13.462;2023-02-28T12:03:43;5.37;;;3.67;;
8654;SDS011;13500;52.514;13.462;2023-02-28T12:06:15;5.00;;;3.17;;
8654;SDS011;13500;52.514;13.462;2023-02-28T12:08:49;4.87;;;3.37;;
8654;SDS011;13500;52.514;13.462;2023-02-28T12:11:26;3.93;;;3.33;;
8654;SDS011;13500;52.514;13.462;2023-02-28T12:14:03;3.93;;;2.90;;
8654;SDS011;13500;52.514;13.462;2023-02-28T12:16:46;4.83;;;3.17;;
8654;SDS011;13500;52.514;13.462;2023-02-28T12:19:21;4.67;;;2.90;;
8654;SDS011;13500;52.514;13.462;2023-02-28T12:22:04;4.63;;;2.67;;
8654;SDS011;13500;52.514;13.462;2023-02-28T12:24:46;5.10;;;2.97;;
8654;SDS011;13500;52.514;13.462;2023-02-28T12:27:22;3.17;;;2.60;;
8654;SDS011;13500;52.514;13.462;2023-02-28T12:29:54;3.10;;;2.77;;
8654;SDS011;13500;52.514;13.462;2023-02-28T12:32:27;3.70;;;2.73;;
8654;SDS011;13500;52.514;13.462;2023-02-28T12:35:00;5.57;;;2.90;;
8654;SDS011;13500;52.514;13.462;2023-02-28T12:37:31;4.23;;;2.60;;
8654;SDS011;13500;52.514;13.462;2023-02-28T12:40:02;4.20;;;2.73;;
8654;SDS011;13500;52.514;13.462;2023-02-28T12:42:33;4.97;;;2.87;;
8654;SDS011;13500;52.514;13.462;2023-02-28T12:45:05;5.20;;;3.10;;
8654;SDS011;13500;52.514;13.462;2023-02-28T12:47:38;7.10;;;2.70;;
8654;SDS011;13500;52.514;13.462;2023-02-28T12:50:08;3.53;;;2.90;;
8654;SDS011;13500;52.514;13.462;2023-02-28T12:52:40;3.20;;;2.40;;
8654;SDS011;13500;52.514;13.462;2023-02-28T12:55:12;6.23;;;3.10;;
8654;SDS011;13500;52.514;13.462;2023-02-28T12:57:45;4.00;;;2.87;;
8654;SDS011;13500;52.514;13.462;2023-02-28T13:00:16;3.93;;;2.73;;
8654;SDS011;13500;52.514;13.462;2023-02-28T13:03:14;4.23;;;2.80;;
8654;SDS011;13500;52.514;13.462;2023-02-28T13:09:13;4.40;;;2.90;;
8654;SDS011;13500;52.514;13.462;2023-02-28T13:11:42;3.93;;;3.33;;
8654;SDS011;13500;52.514;13.462;2023-02-28T13:14:18;6.13;;;3.77;;
8654;SDS011;13500;52.514;13.462;2023-02-28T13:16:54;5.97;;;3.30;;
8654;SDS011;13500;52.514;13.462;2023-02-28T13:19:26;3.40;;;2.67;;
8654;SDS011;13500;52.514;13.462;2023-02-28T13:21:55;3.20;;;2.67;;
8654;SDS011;13500;52.514;13.462;2023-02-28T13:24:37;4.17;;;2.80;;
8654;SDS011;13500;52.514;13.462;2023-02-28T13:30:00;4.00;;;2.80;;
8654;SDS011;13500;52.514;13.462;2023-02-28T13:32:32;7.97;;;3.40;;
8654;SDS011;13500;52.514;13.462;2023-02-28T13:35:13;3.53;;;2.60;;
8654;SDS011;13500;52.514;13.462;2023-02-28T13:38:09;4.87;;;2.93;;
8654;SDS011;13500;52.514;13.462;2023-02-28T13:40:43;5.67;;;3.20;;
8654;SDS011;13500;52.514;13.462;2023-02-28T13:43:11;4.60;;;3.10;;
8654;SDS011;13500;52.514;13.462;2023-02-28T13:45:40;3.47;;;2.77;;
8654;SDS011;13500;52.514;13.462;2023-02-28T13:48:38;6.00;;;2.90;;
8654;SDS011;13500;52.514;13.462;2023-02-28T13:54:06;3.83;;;2.80;;
8654;SDS011;13500;52.514;13.462;2023-02-28T13:56:42;3.60;;;2.70;;
8654;SDS011;13500;52.514;13.462;2023-02-28T13:59:16;5.53;;;2.60;;
8654;SDS011;13500;52.514;13.462;2023-02-28T14:02:03;4.93;;;3.57;;
8654;SDS011;13500;52.514;13.462;2023-02-28T14:04:50;3.97;;;2.80;;
8654;SDS011;13500;52.514;13.462;2023-02-28T14:07:26;4.47;;;3.13;;
8654;SDS011;13500;52.514;13.462;2023-02-28T14:10:03;4.07;;;2.63;;
8654;SDS011;13500;52.514;13.462;2023-02-28T14:15:27;4.63;;;3.13;;
8654;SDS011;13500;52.514;13.462;2023-02-28T14:18:17;4.57;;;3.13;;
8654;SDS011;13500;52.514;13.462;2023-02-28T14:20:53;5.03;;;3.33;;
8654;SDS011;13500;52.514;13.462;2023-02-28T14:26:26;6.20;;;3.33;;
8654;SDS011;13500;52.514;13.462;2023-02-28T14:29:23;4.47;;;3.27;;
8654;SDS011;13500;52.514;13.462;2023-02-28T14:32:01;6.37;;;3.37;;
8654;SDS011;13500;52.514;13.462;2023-02-28T14:34:39;5.83;;;3.30;;
8654;SDS011;13500;52.514;13.462;2023-02-28T14:37:10;4.77;;;3.43;;
8654;SDS011;13500;52.514;13.462;2023-02-28T14:39:41;6.47;;;3.50;;
8654;SDS011;13500;52.514;13.462;2023-02-28T14:42:30;5.43;;;3.80;;
8654;SDS011;13500;52.514;13.462;2023-02-28T14:44:59;5.97;;;3.13;;
8654;SDS011;13500;52.514;13.462;2023-02-28T14:47:28;4.63;;;3.27;;
8654;SDS011;13500;52.514;13.462;2023-02-28T14:49:59;4.57;;;3.20;;
8654;SDS011;13500;52.514;13.462;2023-02-28T14:52:30;5.40;;;3.47;;
8654;SDS011;13500;52.514;13.462;2023-02-28T14:55:00;4.93;;;3.43;;
8654;SDS011;13500;52.514;13.462;2023-02-28T14:57:29;7.60;;;3.10;;
8654;SDS011;13500;52.514;13.462;2023-02-28T15:00:00;3.77;;;3.17;;
8654;SDS011;13500;52.514;13.462;2023-02-28T15:02:30;4.40;;;3.70;;
8654;SDS011;13500;52.514;13.462;2023-02-28T15:05:10;5.90;;;3.50;;
8654;SDS011;13500;52.514;13.462;2023-02-28T15:07:47;4.87;;;3.67;;
8654;SDS011;13500;52.514;13.462;2023-02-28T15:10:18;4.80;;;3.50;;
8654;SDS011;13500;52.514;13.462;2023-02-28T15:12:51;5.30;;;3.57;;
8654;SDS011;13500;52.514;13.462;2023-02-28T15:15:22;5.03;;;3.60;;
8654;SDS011;13500;52.514;13.462;2023-02-28T15:18:06;5.53;;;3.87;;
8654;SDS011;13500;52.514;13.462;2023-02-28T15:20:36;5.70;;;3.40;;
8654;SDS011;13500;52.514;13.462;2023-02-28T15:23:06;4.60;;;3.27;;
8654;SDS011;13500;52.514;13.462;2023-02-28T15:25:34;9.30;;;3.30;;
8654;SDS011;13500;52.514;13.462;2023-02-28T15:28:02;6.20;;;3.50;;
8654;SDS011;13500;52.514;13.462;2023-02-28T15:30:30;4.93;;;3.30;;
8654;SDS011;13500;52.514;13.462;2023-02-28T15:33:03;4.20;;;3.13;;
8654;SDS011;13500;52.514;13.462;2023-02-28T15:35:34;5.23;;;3.30;;
8654;SDS011;13500;52.514;13.462;2023-02-28T15:38:12;3.77;;;3.30;;